MSC Florentina — HPFH — position and weather

sailwx.info

Track history (hours):
 
Tides and Currents Weather Stations Pressure Air Temp Water Temp Dewpoint Dewpoint Depression Visibility Wind Speed Wind Dir Waves Ship Positions

MSC Florentina

Last reported at 2016-May-30 10:17 UTC. Time now 2016-May-30 10:45 UTC.
Position N 29°41' W 095°00'.

Length 300 m; draft 11.4 m.

Type: Ship. MMSI: 352870000.

Date/timePositionNaut miles runAvg speedWind from/ knotsBaromVisibWave heightAir tempDewpointWater temp
2016-May-30 10:17N 29°41' W 095°00'2 2.8
2016-May-30 09:33N 29°40' W 094°58'1110.8
2016-May-30 08:30N 29°30' W 094°52'2311.6
2016-May-30 06:33N 29°15' W 094°32'1110.2
2016-May-30 05:30N 29°07' W 094°25'1010.9
2016-May-30 04:33N 28°57' W 094°25'1311.0
2016-May-30 03:22N 28°44' W 094°24'  
2016-May-27 15:33N 20°06' W 096°20'1817.9
2016-May-27 14:33N 19°50' W 096°12'1817.7
2016-May-27 13:33N 19°34' W 096°05'1817.7
2016-May-27 12:33N 19°17' W 095°58'1110.8
2016-May-27 11:33N 19°12' W 096°08'1 0.5
2016-May-27 10:31N 19°13' W 096°08'0 0.0
2016-May-27 09:31N 19°13' W 096°08'0 0.0
2016-May-27 08:31N 19°13' W 096°08'0 0.0
2016-May-27 07:28N 19°13' W 096°08'0 0.0
2016-May-27 06:31N 19°13' W 096°08'0 0.0
2016-May-27 05:31N 19°13' W 096°08'0 0.0
2016-May-27 04:31N 19°13' W 096°08'0 0.0
2016-May-27 03:31N 19°13' W 096°08'0 0.0
2016-May-27 02:31N 19°13' W 096°08'0 0.0
2016-May-27 01:28N 19°13' W 096°08'0 0.0
2016-May-27 00:31N 19°13' W 096°08'0 0.0
2016-May-26 23:31N 19°13' W 096°08'0 0.0
2016-May-26 22:31N 19°13' W 096°08'0 0.0
2016-May-26 21:31N 19°13' W 096°08'0 0.0
2016-May-26 20:31N 19°13' W 096°08'0 0.0
2016-May-26 19:28N 19°13' W 096°08'0 0.0
2016-May-26 18:31N 19°13' W 096°08'0 0.1
2016-May-26 17:33N 19°13' W 096°08'8 7.6
2016-May-26 16:33N 19°12' W 096°00'1818.2
2016-May-26 15:33N 19°16' W 095°41'  
2016-May-23 16:05N 10°04' W 079°55'1222.2
2016-May-23 15:33N 09°52' W 079°56'2221.5
2016-May-23 14:34N 09°31' W 079°55'10 9.8
2016-May-23 13:33N 09°21' W 079°55'0 0.5
2016-May-23 12:33N 09°21' W 079°54'0 0.0
2016-May-23 11:31N 09°21' W 079°54'0 0.0
2016-May-23 10:32N 09°21' W 079°54'0 0.0
2016-May-23 09:33N 09°21' W 079°54'0 0.0
2016-May-23 08:32N 09°21' W 079°54'0 0.0
2016-May-23 07:31N 09°21' W 079°54'0 0.0
2016-May-23 06:33N 09°21' W 079°54'0 0.0
2016-May-23 05:31N 09°21' W 079°54'0 0.0
2016-May-23 04:32N 09°21' W 079°54'0 0.0
2016-May-23 03:33N 09°21' W 079°54'0 0.0
2016-May-23 02:30N 09°21' W 079°54'0 0.0
2016-May-23 01:33N 09°21' W 079°54'0 0.0
2016-May-23 00:32N 09°21' W 079°54'2 1.6
2016-May-22 23:33N 09°22' W 079°55'7 6.7
2016-May-22 22:34N 09°29' W 079°54'0 0.4
2016-May-22 21:33N 09°29' W 079°54'0 0.5
2016-May-22 20:33N 09°30' W 079°54'0 0.4
2016-May-22 19:33N 09°30' W 079°54'0 0.0
2016-May-22 18:33N 09°30' W 079°54'4 3.7
2016-May-22 17:33N 09°33' W 079°52'7 6.8
2016-May-22 16:33N 09°39' W 079°49'6 6.0
2016-May-22 15:33N 09°44' W 079°45'7 7.0
2016-May-22 14:32N 09°45' W 079°38'7 7.5
2016-May-22 13:33N 09°45' W 079°30'8 7.8
2016-May-22 12:33N 09°47' W 079°23'  
Track history (hours):
 
Tides and Currents Weather Stations Pressure Air Temp Water Temp Dewpoint Dewpoint Depression Visibility Wind Speed Wind Dir Waves Ship Positions

MSC Florentina

Last reported at 2016-May-30 10:17 UTC. Time now 2016-May-30 10:45 UTC.
Position N 29°41' W 095°00'.

Length 300 m; draft 11.4 m.

Type: Ship. MMSI: 352870000.

Date/timePositionNaut miles runAvg speedWind from/ knotsBaromVisibWave heightAir tempDewpointWater temp
2016-May-30 10:17N 29°41' W 095°00'2 2.8
2016-May-30 09:33N 29°40' W 094°58'1110.8
2016-May-30 08:30N 29°30' W 094°52'2311.6
2016-May-30 06:33N 29°15' W 094°32'1110.2
2016-May-30 05:30N 29°07' W 094°25'1010.9
2016-May-30 04:33N 28°57' W 094°25'1311.0
2016-May-30 03:22N 28°44' W 094°24'  
2016-May-27 15:33N 20°06' W 096°20'1817.9
2016-May-27 14:33N 19°50' W 096°12'1817.7
2016-May-27 13:33N 19°34' W 096°05'1817.7
2016-May-27 12:33N 19°17' W 095°58'1110.8
2016-May-27 11:33N 19°12' W 096°08'1 0.5
2016-May-27 10:31N 19°13' W 096°08'0 0.0
2016-May-27 09:31N 19°13' W 096°08'0 0.0
2016-May-27 08:31N 19°13' W 096°08'0 0.0
2016-May-27 07:28N 19°13' W 096°08'0 0.0
2016-May-27 06:31N 19°13' W 096°08'0 0.0
2016-May-27 05:31N 19°13' W 096°08'0 0.0
2016-May-27 04:31N 19°13' W 096°08'0 0.0
2016-May-27 03:31N 19°13' W 096°08'0 0.0
2016-May-27 02:31N 19°13' W 096°08'0 0.0
2016-May-27 01:28N 19°13' W 096°08'0 0.0
2016-May-27 00:31N 19°13' W 096°08'0 0.0
2016-May-26 23:31N 19°13' W 096°08'0 0.0
2016-May-26 22:31N 19°13' W 096°08'0 0.0
2016-May-26 21:31N 19°13' W 096°08'0 0.0
2016-May-26 20:31N 19°13' W 096°08'0 0.0
2016-May-26 19:28N 19°13' W 096°08'0 0.0
2016-May-26 18:31N 19°13' W 096°08'0 0.1
2016-May-26 17:33N 19°13' W 096°08'8 7.6
2016-May-26 16:33N 19°12' W 096°00'1818.2
2016-May-26 15:33N 19°16' W 095°41'  
2016-May-23 16:05N 10°04' W 079°55'1222.2
2016-May-23 15:33N 09°52' W 079°56'2221.5
2016-May-23 14:34N 09°31' W 079°55'10 9.8
2016-May-23 13:33N 09°21' W 079°55'0 0.5
2016-May-23 12:33N 09°21' W 079°54'0 0.0
2016-May-23 11:31N 09°21' W 079°54'0 0.0
2016-May-23 10:32N 09°21' W 079°54'0 0.0
2016-May-23 09:33N 09°21' W 079°54'0 0.0
2016-May-23 08:32N 09°21' W 079°54'0 0.0
2016-May-23 07:31N 09°21' W 079°54'0 0.0
2016-May-23 06:33N 09°21' W 079°54'0 0.0
2016-May-23 05:31N 09°21' W 079°54'0 0.0
2016-May-23 04:32N 09°21' W 079°54'0 0.0
2016-May-23 03:33N 09°21' W 079°54'0 0.0
2016-May-23 02:30N 09°21' W 079°54'0 0.0
2016-May-23 01:33N 09°21' W 079°54'0 0.0
2016-May-23 00:32N 09°21' W 079°54'2 1.6
2016-May-22 23:33N 09°22' W 079°55'7 6.7
2016-May-22 22:34N 09°29' W 079°54'0 0.4
2016-May-22 21:33N 09°29' W 079°54'0 0.5
2016-May-22 20:33N 09°30' W 079°54'0 0.4
2016-May-22 19:33N 09°30' W 079°54'0 0.0
2016-May-22 18:33N 09°30' W 079°54'4 3.7
2016-May-22 17:33N 09°33' W 079°52'7 6.8
2016-May-22 16:33N 09°39' W 079°49'6 6.0
2016-May-22 15:33N 09°44' W 079°45'7 7.0
2016-May-22 14:32N 09°45' W 079°38'7 7.5
2016-May-22 13:33N 09°45' W 079°30'8 7.8
2016-May-22 12:33N 09°47' W 079°23'  

Dump ship's entire track history